sensor_id;sensor_type;location;lat;lon;timestamp;temperature;humidity
33863;DHT22;20158;51.436;-2.742;2022-10-16T00:01:11;14.00;63.90
33863;DHT22;20158;51.436;-2.742;2022-10-16T00:03:38;14.00;64.00
33863;DHT22;20158;51.436;-2.742;2022-10-16T00:06:05;14.00;64.00
33863;DHT22;20158;51.436;-2.742;2022-10-16T00:08:31;14.00;64.10
33863;DHT22;20158;51.436;-2.742;2022-10-16T00:11:06;13.90;63.90
33863;DHT22;20158;51.436;-2.742;2022-10-16T00:13:34;13.90;64.00
33863;DHT22;20158;51.436;-2.742;2022-10-16T00:16:01;13.90;64.10
33863;DHT22;20158;51.436;-2.742;2022-10-16T00:18:28;13.90;64.10
33863;DHT22;20158;51.436;-2.742;2022-10-16T00:20:55;13.90;64.10
33863;DHT22;20158;51.436;-2.742;2022-10-16T00:23:22;13.90;64.20
33863;DHT22;20158;51.436;-2.742;2022-10-16T00:25:57;13.80;64.10
33863;DHT22;20158;51.436;-2.742;2022-10-16T00:28:23;13.80;64.10
33863;DHT22;20158;51.436;-2.742;2022-10-16T00:30:49;13.80;64.10
33863;DHT22;20158;51.436;-2.742;2022-10-16T00:33:15;13.80;64.20
33863;DHT22;20158;51.436;-2.742;2022-10-16T00:35:41;13.80;64.20
33863;DHT22;20158;51.436;-2.742;2022-10-16T00:38:07;13.70;64.10
33863;DHT22;20158;51.436;-2.742;2022-10-16T00:40:33;13.70;64.20
33863;DHT22;20158;51.436;-2.742;2022-10-16T00:42:59;13.70;64.20
33863;DHT22;20158;51.436;-2.742;2022-10-16T00:45:25;13.70;64.30
33863;DHT22;20158;51.436;-2.742;2022-10-16T00:47:52;13.70;64.40
33863;DHT22;20158;51.436;-2.742;2022-10-16T00:52:53;13.60;64.30
33863;DHT22;20158;51.436;-2.742;2022-10-16T00:55:19;13.70;64.50
33863;DHT22;20158;51.436;-2.742;2022-10-16T00:57:46;13.60;64.30
33863;DHT22;20158;51.436;-2.742;2022-10-16T01:00:16;13.60;64.40
33863;DHT22;20158;51.436;-2.742;2022-10-16T01:02:42;13.60;64.40
33863;DHT22;20158;51.436;-2.742;2022-10-16T01:05:08;13.60;64.40
33863;DHT22;20158;51.436;-2.742;2022-10-16T01:07:52;13.60;64.40
33863;DHT22;20158;51.436;-2.742;2022-10-16T01:10:44;13.60;64.50
33863;DHT22;20158;51.436;-2.742;2022-10-16T01:13:21;13.60;64.50
33863;DHT22;20158;51.436;-2.742;2022-10-16T01:16:00;13.60;64.50
33863;DHT22;20158;51.436;-2.742;2022-10-16T01:18:45;13.50;64.30
33863;DHT22;20158;51.436;-2.742;2022-10-16T01:21:25;13.50;64.40
33863;DHT22;20158;51.436;-2.742;2022-10-16T01:29:40;13.50;64.40
33863;DHT22;20158;51.436;-2.742;2022-10-16T01:32:28;13.50;64.40
33863;DHT22;20158;51.436;-2.742;2022-10-16T01:35:04;13.40;64.30
33863;DHT22;20158;51.436;-2.742;2022-10-16T01:37:40;13.40;64.30
33863;DHT22;20158;51.436;-2.742;2022-10-16T01:40:12;13.40;64.30
33863;DHT22;20158;51.436;-2.742;2022-10-16T01:42:48;13.40;64.40
33863;DHT22;20158;51.436;-2.742;2022-10-16T01:45:18;13.40;64.40
33863;DHT22;20158;51.436;-2.742;2022-10-16T01:47:46;13.40;64.40
33863;DHT22;20158;51.436;-2.742;2022-10-16T01:50:15;13.30;64.20
33863;DHT22;20158;51.436;-2.742;2022-10-16T01:52:44;13.30;64.30
33863;DHT22;20158;51.436;-2.742;2022-10-16T01:55:17;13.30;64.40
33863;DHT22;20158;51.436;-2.742;2022-10-16T01:57:48;13.30;64.40
33863;DHT22;20158;51.436;-2.742;2022-10-16T02:00:17;13.30;64.40
33863;DHT22;20158;51.436;-2.742;2022-10-16T02:02:47;13.30;64.40
33863;DHT22;20158;51.436;-2.742;2022-10-16T02:05:28;13.30;64.50
33863;DHT22;20158;51.436;-2.742;2022-10-16T02:07:56;13.30;64.50
33863;DHT22;20158;51.436;-2.742;2022-10-16T02:10:24;13.30;64.50
33863;DHT22;20158;51.436;-2.742;2022-10-16T02:12:58;13.30;64.50
33863;DHT22;20158;51.436;-2.742;2022-10-16T02:15:25;13.20;64.40
33863;DHT22;20158;51.436;-2.742;2022-10-16T02:17:51;13.20;64.40
33863;DHT22;20158;51.436;-2.742;2022-10-16T02:20:22;13.20;64.40
33863;DHT22;20158;51.436;-2.742;2022-10-16T02:22:52;13.20;64.50
33863;DHT22;20158;51.436;-2.742;2022-10-16T02:25:29;13.10;64.30
33863;DHT22;20158;51.436;-2.742;2022-10-16T02:28:16;13.10;64.40
33863;DHT22;20158;51.436;-2.742;2022-10-16T02:31:01;13.10;64.50
33863;DHT22;20158;51.436;-2.742;2022-10-16T02:33:30;13.10;64.50
33863;DHT22;20158;51.436;-2.742;2022-10-16T02:35:58;13.10;64.50
33863;DHT22;20158;51.436;-2.742;2022-10-16T02:38:25;13.10;64.60
33863;DHT22;20158;51.436;-2.742;2022-10-16T02:40:51;13.10;64.60
33863;DHT22;20158;51.436;-2.742;2022-10-16T02:43:19;13.10;64.60
33863;DHT22;20158;51.436;-2.742;2022-10-16T02:45:45;13.00;64.40
33863;DHT22;20158;51.436;-2.742;2022-10-16T02:48:11;13.00;64.50
33863;DHT22;20158;51.436;-2.742;2022-10-16T02:50:38;13.00;64.50
33863;DHT22;20158;51.436;-2.742;2022-10-16T02:53:03;13.00;64.50
33863;DHT22;20158;51.436;-2.742;2022-10-16T02:55:29;13.00;64.60
33863;DHT22;20158;51.436;-2.742;2022-10-16T02:57:56;13.00;64.60
33863;DHT22;20158;51.436;-2.742;2022-10-16T03:00:21;13.00;64.60
33863;DHT22;20158;51.436;-2.742;2022-10-16T03:02:49;13.00;64.60
33863;DHT22;20158;51.436;-2.742;2022-10-16T03:05:15;12.90;64.40
33863;DHT22;20158;51.436;-2.742;2022-10-16T03:07:41;12.90;64.50
33863;DHT22;20158;51.436;-2.742;2022-10-16T03:10:08;12.90;64.50
33863;DHT22;20158;51.436;-2.742;2022-10-16T03:12:35;13.00;64.70
33863;DHT22;20158;51.436;-2.742;2022-10-16T03:15:00;12.90;64.50
33863;DHT22;20158;51.436;-2.742;2022-10-16T03:17:28;12.90;64.60
33863;DHT22;20158;51.436;-2.742;2022-10-16T03:19:54;12.90;64.60
33863;DHT22;20158;51.436;-2.742;2022-10-16T03:22:19;12.80;64.40
33863;DHT22;20158;51.436;-2.742;2022-10-16T03:24:45;12.90;64.60
33863;DHT22;20158;51.436;-2.742;2022-10-16T03:27:11;12.90;64.60
33863;DHT22;20158;51.436;-2.742;2022-10-16T03:29:37;12.80;64.40
33863;DHT22;20158;51.436;-2.742;2022-10-16T03:32:03;12.90;64.60
33863;DHT22;20158;51.436;-2.742;2022-10-16T03:34:29;12.90;64.60
33863;DHT22;20158;51.436;-2.742;2022-10-16T03:36:55;12.90;64.60
33863;DHT22;20158;51.436;-2.742;2022-10-16T03:39:21;12.90;64.60
33863;DHT22;20158;51.436;-2.742;2022-10-16T03:41:47;12.90;64.60
33863;DHT22;20158;51.436;-2.742;2022-10-16T03:44:13;12.90;64.60
33863;DHT22;20158;51.436;-2.742;2022-10-16T03:46:39;12.90;64.60
33863;DHT22;20158;51.436;-2.742;2022-10-16T03:49:05;12.90;64.60
33863;DHT22;20158;51.436;-2.742;2022-10-16T03:51:31;12.90;64.60
33863;DHT22;20158;51.436;-2.742;2022-10-16T03:53:57;12.90;64.70
33863;DHT22;20158;51.436;-2.742;2022-10-16T03:56:23;13.00;64.80
33863;DHT22;20158;51.436;-2.742;2022-10-16T03:58:50;12.90;64.70
33863;DHT22;20158;51.436;-2.742;2022-10-16T04:01:16;12.90;64.70
33863;DHT22;20158;51.436;-2.742;2022-10-16T04:03:43;12.90;64.70
33863;DHT22;20158;51.436;-2.742;2022-10-16T04:06:09;13.00;64.90
33863;DHT22;20158;51.436;-2.742;2022-10-16T04:08:35;13.00;65.00
33863;DHT22;20158;51.436;-2.742;2022-10-16T04:11:03;12.90;64.80
33863;DHT22;20158;51.436;-2.742;2022-10-16T04:13:29;12.90;64.80
33863;DHT22;20158;51.436;-2.742;2022-10-16T04:15:55;12.90;64.90
33863;DHT22;20158;51.436;-2.742;2022-10-16T04:18:21;12.90;64.90
33863;DHT22;20158;51.436;-2.742;2022-10-16T04:20:47;12.90;65.00
33863;DHT22;20158;51.436;-2.742;2022-10-16T04:23:14;12.80;64.90
33863;DHT22;20158;51.436;-2.742;2022-10-16T04:25:40;12.80;65.00
33863;DHT22;20158;51.436;-2.742;2022-10-16T04:28:06;12.80;65.10
33863;DHT22;20158;51.436;-2.742;2022-10-16T04:30:31;12.70;65.50
33863;DHT22;20158;51.436;-2.742;2022-10-16T04:32:59;12.70;65.10
33863;DHT22;20158;51.436;-2.742;2022-10-16T04:35:25;12.70;65.10
33863;DHT22;20158;51.436;-2.742;2022-10-16T04:37:51;12.70;65.20
33863;DHT22;20158;51.436;-2.742;2022-10-16T04:40:17;12.70;65.30
33863;DHT22;20158;51.436;-2.742;2022-10-16T04:42:43;12.60;65.10
33863;DHT22;20158;51.436;-2.742;2022-10-16T04:45:09;12.60;65.20
33863;DHT22;20158;51.436;-2.742;2022-10-16T04:47:36;12.60;65.30
33863;DHT22;20158;51.436;-2.742;2022-10-16T04:50:02;12.60;65.30
33863;DHT22;20158;51.436;-2.742;2022-10-16T04:52:29;12.60;65.30
33863;DHT22;20158;51.436;-2.742;2022-10-16T04:54:57;12.60;65.30
33863;DHT22;20158;51.436;-2.742;2022-10-16T04:57:26;12.60;65.30
33863;DHT22;20158;51.436;-2.742;2022-10-16T04:59:53;12.70;65.50
33863;DHT22;20158;51.436;-2.742;2022-10-16T05:02:19;12.60;65.40
33863;DHT22;20158;51.436;-2.742;2022-10-16T05:04:45;12.60;65.40
33863;DHT22;20158;51.436;-2.742;2022-10-16T05:07:10;12.70;66.10
33863;DHT22;20158;51.436;-2.742;2022-10-16T05:09:39;12.60;65.40
33863;DHT22;20158;51.436;-2.742;2022-10-16T05:12:05;12.70;65.60
33863;DHT22;20158;51.436;-2.742;2022-10-16T05:14:31;12.70;65.60
33863;DHT22;20158;51.436;-2.742;2022-10-16T05:17:00;12.70;65.70
33863;DHT22;20158;51.436;-2.742;2022-10-16T05:19:26;12.70;65.70
33863;DHT22;20158;51.436;-2.742;2022-10-16T05:21:52;12.70;65.70
33863;DHT22;20158;51.436;-2.742;2022-10-16T05:24:18;12.70;65.70
33863;DHT22;20158;51.436;-2.742;2022-10-16T05:26:44;12.70;65.70
33863;DHT22;20158;51.436;-2.742;2022-10-16T05:29:10;12.70;66.00
33863;DHT22;20158;51.436;-2.742;2022-10-16T05:31:36;12.70;65.80
33863;DHT22;20158;51.436;-2.742;2022-10-16T05:34:02;12.70;66.30
33863;DHT22;20158;51.436;-2.742;2022-10-16T05:36:28;12.70;65.80
33863;DHT22;20158;51.436;-2.742;2022-10-16T05:38:53;12.70;65.90
33863;DHT22;20158;51.436;-2.742;2022-10-16T05:41:19;12.70;65.90
33863;DHT22;20158;51.436;-2.742;2022-10-16T05:43:47;12.70;65.90
33863;DHT22;20158;51.436;-2.742;2022-10-16T05:46:14;12.60;65.70
33863;DHT22;20158;51.436;-2.742;2022-10-16T05:48:40;12.70;66.00
33863;DHT22;20158;51.436;-2.742;2022-10-16T05:51:08;12.70;66.00
33863;DHT22;20158;51.436;-2.742;2022-10-16T05:53:36;12.70;66.00
33863;DHT22;20158;51.436;-2.742;2022-10-16T05:56:08;12.70;66.10
33863;DHT22;20158;51.436;-2.742;2022-10-16T05:58:37;12.70;66.10
33863;DHT22;20158;51.436;-2.742;2022-10-16T06:01:05;12.60;65.90
33863;DHT22;20158;51.436;-2.742;2022-10-16T06:03:34;12.70;66.20
33863;DHT22;20158;51.436;-2.742;2022-10-16T06:06:07;12.70;66.20
33863;DHT22;20158;51.436;-2.742;2022-10-16T06:08:33;12.70;66.20
33863;DHT22;20158;51.436;-2.742;2022-10-16T06:11:08;12.70;66.20
33863;DHT22;20158;51.436;-2.742;2022-10-16T06:13:34;12.70;66.20
33863;DHT22;20158;51.436;-2.742;2022-10-16T06:16:01;12.70;66.30
33863;DHT22;20158;51.436;-2.742;2022-10-16T06:18:28;12.70;66.30
33863;DHT22;20158;51.436;-2.742;2022-10-16T06:20:54;12.70;66.30
33863;DHT22;20158;51.436;-2.742;2022-10-16T06:23:22;12.70;66.40
33863;DHT22;20158;51.436;-2.742;2022-10-16T06:25:49;12.70;66.40
33863;DHT22;20158;51.436;-2.742;2022-10-16T06:28:15;12.60;66.30
33863;DHT22;20158;51.436;-2.742;2022-10-16T06:30:41;12.60;66.40
33863;DHT22;20158;51.436;-2.742;2022-10-16T06:33:10;12.60;66.40
33863;DHT22;20158;51.436;-2.742;2022-10-16T06:35:36;12.60;66.50
33863;DHT22;20158;51.436;-2.742;2022-10-16T06:38:02;12.50;66.30
33863;DHT22;20158;51.436;-2.742;2022-10-16T06:40:28;12.50;66.40
33863;DHT22;20158;51.436;-2.742;2022-10-16T06:42:57;12.40;66.30
33863;DHT22;20158;51.436;-2.742;2022-10-16T06:45:23;12.40;66.40
33863;DHT22;20158;51.436;-2.742;2022-10-16T06:47:52;12.40;66.40
33863;DHT22;20158;51.436;-2.742;2022-10-16T06:50:18;12.40;66.50
33863;DHT22;20158;51.436;-2.742;2022-10-16T06:52:44;12.30;66.30
33863;DHT22;20158;51.436;-2.742;2022-10-16T06:55:10;12.30;66.60
33863;DHT22;20158;51.436;-2.742;2022-10-16T06:57:36;12.30;67.30
33863;DHT22;20158;51.436;-2.742;2022-10-16T07:00:02;12.30;67.70
33863;DHT22;20158;51.436;-2.742;2022-10-16T07:02:28;12.40;68.00
33863;DHT22;20158;51.436;-2.742;2022-10-16T07:04:54;12.30;67.80
33863;DHT22;20158;51.436;-2.742;2022-10-16T07:07:22;12.40;68.00
33863;DHT22;20158;51.436;-2.742;2022-10-16T07:09:50;12.30;67.80
33863;DHT22;20158;51.436;-2.742;2022-10-16T07:12:16;12.30;67.80
33863;DHT22;20158;51.436;-2.742;2022-10-16T07:14:42;12.30;67.80
33863;DHT22;20158;51.436;-2.742;2022-10-16T07:17:08;12.20;67.70
33863;DHT22;20158;51.436;-2.742;2022-10-16T07:19:34;12.20;67.60
33863;DHT22;20158;51.436;-2.742;2022-10-16T07:22:00;12.20;67.60
33863;DHT22;20158;51.436;-2.742;2022-10-16T07:24:26;12.10;67.40
33863;DHT22;20158;51.436;-2.742;2022-10-16T07:26:52;12.10;67.50
33863;DHT22;20158;51.436;-2.742;2022-10-16T07:29:20;12.10;67.50
33863;DHT22;20158;51.436;-2.742;2022-10-16T07:31:48;12.10;67.50
33863;DHT22;20158;51.436;-2.742;2022-10-16T07:34:16;12.10;67.50
33863;DHT22;20158;51.436;-2.742;2022-10-16T07:36:42;12.10;67.50
33863;DHT22;20158;51.436;-2.742;2022-10-16T07:39:08;12.00;67.40
33863;DHT22;20158;51.436;-2.742;2022-10-16T07:41:34;12.00;67.30
33863;DHT22;20158;51.436;-2.742;2022-10-16T07:44:02;12.00;67.40
33863;DHT22;20158;51.436;-2.742;2022-10-16T07:46:29;12.00;67.30
33863;DHT22;20158;51.436;-2.742;2022-10-16T07:48:55;12.10;67.50
33863;DHT22;20158;51.436;-2.742;2022-10-16T07:51:23;12.10;67.50
33863;DHT22;20158;51.436;-2.742;2022-10-16T07:53:51;12.10;67.40
33863;DHT22;20158;51.436;-2.742;2022-10-16T07:56:18;12.10;67.40
33863;DHT22;20158;51.436;-2.742;2022-10-16T07:58:45;12.10;67.40
33863;DHT22;20158;51.436;-2.742;2022-10-16T08:01:13;12.10;67.30
33863;DHT22;20158;51.436;-2.742;2022-10-16T08:03:42;12.10;67.30
33863;DHT22;20158;51.436;-2.742;2022-10-16T08:06:07;12.20;67.50
33863;DHT22;20158;51.436;-2.742;2022-10-16T08:08:34;12.20;67.40
33863;DHT22;20158;51.436;-2.742;2022-10-16T08:11:01;12.30;67.50
33863;DHT22;20158;51.436;-2.742;2022-10-16T08:13:29;12.30;67.50
33863;DHT22;20158;51.436;-2.742;2022-10-16T08:15:57;12.30;67.40
33863;DHT22;20158;51.436;-2.742;2022-10-16T08:18:23;12.40;67.50
33863;DHT22;20158;51.436;-2.742;2022-10-16T08:20:55;12.40;67.50
33863;DHT22;20158;51.436;-2.742;2022-10-16T08:23:22;12.40;67.40
33863;DHT22;20158;51.436;-2.742;2022-10-16T08:25:49;12.40;67.50
33863;DHT22;20158;51.436;-2.742;2022-10-16T08:28:17;12.40;67.70
33863;DHT22;20158;51.436;-2.742;2022-10-16T08:30:43;12.40;67.70
33863;DHT22;20158;51.436;-2.742;2022-10-16T08:33:09;12.40;67.70
33863;DHT22;20158;51.436;-2.742;2022-10-16T08:35:35;12.40;67.80
33863;DHT22;20158;51.436;-2.742;2022-10-16T08:38:04;12.50;68.00
33863;DHT22;20158;51.436;-2.742;2022-10-16T08:40:31;12.50;68.00
33863;DHT22;20158;51.436;-2.742;2022-10-16T08:43:42;12.50;68.10
33863;DHT22;20158;51.436;-2.742;2022-10-16T08:48:54;12.50;68.10
33863;DHT22;20158;51.436;-2.742;2022-10-16T08:51:24;12.50;68.10
33863;DHT22;20158;51.436;-2.742;2022-10-16T08:53:58;12.50;68.10
33863;DHT22;20158;51.436;-2.742;2022-10-16T08:56:26;12.60;68.30
33863;DHT22;20158;51.436;-2.742;2022-10-16T08:58:54;12.60;68.20
33863;DHT22;20158;51.436;-2.742;2022-10-16T09:01:22;12.60;68.20
33863;DHT22;20158;51.436;-2.742;2022-10-16T09:06:45;12.60;68.20
33863;DHT22;20158;51.436;-2.742;2022-10-16T09:09:18;12.60;68.20
33863;DHT22;20158;51.436;-2.742;2022-10-16T09:25:32;12.90;68.40
33863;DHT22;20158;51.436;-2.742;2022-10-16T09:27:58;12.90;68.40
33863;DHT22;20158;51.436;-2.742;2022-10-16T09:30:27;13.00;68.50
33863;DHT22;20158;51.436;-2.742;2022-10-16T09:32:55;13.00;68.50
33863;DHT22;20158;51.436;-2.742;2022-10-16T09:35:38;13.10;68.50
33863;DHT22;20158;51.436;-2.742;2022-10-16T09:38:05;13.20;68.60
33863;DHT22;20158;51.436;-2.742;2022-10-16T09:40:34;13.40;68.80
33863;DHT22;20158;51.436;-2.742;2022-10-16T09:43:20;13.40;68.70
33863;DHT22;20158;51.436;-2.742;2022-10-16T09:46:02;13.60;69.20
33863;DHT22;20158;51.436;-2.742;2022-10-16T09:48:44;13.80;69.10
33863;DHT22;20158;51.436;-2.742;2022-10-16T09:51:21;13.90;69.20
33863;DHT22;20158;51.436;-2.742;2022-10-16T09:53:53;14.10;69.50
33863;DHT22;20158;51.436;-2.742;2022-10-16T09:56:34;14.40;70.40
33863;DHT22;20158;51.436;-2.742;2022-10-16T09:59:22;14.70;70.40
33863;DHT22;20158;51.436;-2.742;2022-10-16T10:01:56;15.10;70.60
33863;DHT22;20158;51.436;-2.742;2022-10-16T10:04:41;15.40;70.40
33863;DHT22;20158;51.436;-2.742;2022-10-16T10:07:18;15.60;70.40
33863;DHT22;20158;51.436;-2.742;2022-10-16T10:09:46;15.80;70.50
33863;DHT22;20158;51.436;-2.742;2022-10-16T10:12:23;16.00;70.60
33863;DHT22;20158;51.436;-2.742;2022-10-16T10:14:56;16.10;70.70
33863;DHT22;20158;51.436;-2.742;2022-10-16T10:17:25;16.30;70.90
33863;DHT22;20158;51.436;-2.742;2022-10-16T10:30:37;16.60;70.70
33863;DHT22;20158;51.436;-2.742;2022-10-16T10:36:27;16.60;70.40
33863;DHT22;20158;51.436;-2.742;2022-10-16T10:42:23;16.40;70.10
33863;DHT22;20158;51.436;-2.742;2022-10-16T10:44:37;16.40;70.10
33863;DHT22;20158;51.436;-2.742;2022-10-16T10:52:58;16.30;70.00
33863;DHT22;20158;51.436;-2.742;2022-10-16T10:55:37;16.30;70.10
33863;DHT22;20158;51.436;-2.742;2022-10-16T11:04:00;16.30;69.80
33863;DHT22;20158;51.436;-2.742;2022-10-16T11:06:42;16.30;69.60
33863;DHT22;20158;51.436;-2.742;2022-10-16T11:09:15;16.30;69.50
33863;DHT22;20158;51.436;-2.742;2022-10-16T11:11:45;16.30;69.40
33863;DHT22;20158;51.436;-2.742;2022-10-16T11:14:34;16.30;69.30
33863;DHT22;20158;51.436;-2.742;2022-10-16T11:17:11;16.30;69.00
33863;DHT22;20158;51.436;-2.742;2022-10-16T11:22:30;16.40;69.00
33863;DHT22;20158;51.436;-2.742;2022-10-16T11:27:45;16.40;68.50
33863;DHT22;20158;51.436;-2.742;2022-10-16T11:30:18;16.50;68.40
33863;DHT22;20158;51.436;-2.742;2022-10-16T11:39:00;16.70;68.10
33863;DHT22;20158;51.436;-2.742;2022-10-16T11:41:32;16.70;67.80
33863;DHT22;20158;51.436;-2.742;2022-10-16T11:44:34;16.80;67.70
33863;DHT22;20158;51.436;-2.742;2022-10-16T11:49:39;16.80;67.50
33863;DHT22;20158;51.436;-2.742;2022-10-16T11:54:47;16.80;67.00
33863;DHT22;20158;51.436;-2.742;2022-10-16T11:57:27;17.00;67.20
33863;DHT22;20158;51.436;-2.742;2022-10-16T12:03:22;17.20;67.50
33863;DHT22;20158;51.436;-2.742;2022-10-16T12:06:06;17.40;67.50
33863;DHT22;20158;51.436;-2.742;2022-10-16T12:08:36;17.60;67.60
33863;DHT22;20158;51.436;-2.742;2022-10-16T12:11:08;17.90;67.60
33863;DHT22;20158;51.436;-2.742;2022-10-16T12:13:39;18.10;67.60
33863;DHT22;20158;51.436;-2.742;2022-10-16T12:18:42;18.50;67.60
33863;DHT22;20158;51.436;-2.742;2022-10-16T12:21:09;18.80;67.60
33863;DHT22;20158;51.436;-2.742;2022-10-16T12:23:56;19.00;67.40
33863;DHT22;20158;51.436;-2.742;2022-10-16T12:26:25;19.30;67.10
33863;DHT22;20158;51.436;-2.742;2022-10-16T12:28:52;19.50;66.70
33863;DHT22;20158;51.436;-2.742;2022-10-16T12:31:18;19.80;66.60
33863;DHT22;20158;51.436;-2.742;2022-10-16T12:34:02;20.00;66.30
33863;DHT22;20158;51.436;-2.742;2022-10-16T12:36:35;20.20;65.70
33863;DHT22;20158;51.436;-2.742;2022-10-16T12:39:01;20.40;65.60
33863;DHT22;20158;51.436;-2.742;2022-10-16T12:41:33;20.70;65.70
33863;DHT22;20158;51.436;-2.742;2022-10-16T12:44:01;20.90;65.40
33863;DHT22;20158;51.436;-2.742;2022-10-16T12:51:54;21.60;64.00
33863;DHT22;20158;51.436;-2.742;2022-10-16T12:54:43;21.80;64.00
33863;DHT22;20158;51.436;-2.742;2022-10-16T13:05:33;22.30;62.50
33863;DHT22;20158;51.436;-2.742;2022-10-16T13:14:17;22.20;61.20
33863;DHT22;20158;51.436;-2.742;2022-10-16T13:22:03;22.40;61.10
33863;DHT22;20158;51.436;-2.742;2022-10-16T13:27:10;22.50;60.90
33863;DHT22;20158;51.436;-2.742;2022-10-16T13:29:39;22.60;60.60
33863;DHT22;20158;51.436;-2.742;2022-10-16T13:32:10;22.60;60.60
33863;DHT22;20158;51.436;-2.742;2022-10-16T13:34:48;22.60;60.30
33863;DHT22;20158;51.436;-2.742;2022-10-16T13:37:19;22.60;60.00
33863;DHT22;20158;51.436;-2.742;2022-10-16T13:39:46;22.50;59.90
33863;DHT22;20158;51.436;-2.742;2022-10-16T13:42:16;22.50;59.90
33863;DHT22;20158;51.436;-2.742;2022-10-16T13:44:50;22.50;59.70
33863;DHT22;20158;51.436;-2.742;2022-10-16T13:47:25;22.50;59.60
33863;DHT22;20158;51.436;-2.742;2022-10-16T13:50:03;22.50;59.60
33863;DHT22;20158;51.436;-2.742;2022-10-16T13:52:29;22.50;59.40
33863;DHT22;20158;51.436;-2.742;2022-10-16T13:54:55;22.50;59.60
33863;DHT22;20158;51.436;-2.742;2022-10-16T13:57:23;22.60;59.70
33863;DHT22;20158;51.436;-2.742;2022-10-16T13:59:50;22.50;59.20
33863;DHT22;20158;51.436;-2.742;2022-10-16T14:04:46;22.60;59.00
33863;DHT22;20158;51.436;-2.742;2022-10-16T14:07:17;22.50;58.80
33863;DHT22;20158;51.436;-2.742;2022-10-16T14:09:49;22.50;58.80
33863;DHT22;20158;51.436;-2.742;2022-10-16T14:12:16;22.50;59.30
33863;DHT22;20158;51.436;-2.742;2022-10-16T14:14:44;22.50;58.70
33863;DHT22;20158;51.436;-2.742;2022-10-16T14:17:18;22.50;58.70
33863;DHT22;20158;51.436;-2.742;2022-10-16T14:19:49;22.40;58.30
33863;DHT22;20158;51.436;-2.742;2022-10-16T14:22:26;22.40;58.30
33863;DHT22;20158;51.436;-2.742;2022-10-16T14:24:53;22.40;58.10
33863;DHT22;20158;51.436;-2.742;2022-10-16T14:27:34;22.30;58.10
33863;DHT22;20158;51.436;-2.742;2022-10-16T14:30:21;22.30;57.80
33863;DHT22;20158;51.436;-2.742;2022-10-16T14:33:03;22.20;57.70
33863;DHT22;20158;51.436;-2.742;2022-10-16T14:37:59;22.20;58.10
33863;DHT22;20158;51.436;-2.742;2022-10-16T14:40:31;22.20;58.20
33863;DHT22;20158;51.436;-2.742;2022-10-16T14:42:58;22.20;58.30
33863;DHT22;20158;51.436;-2.742;2022-10-16T14:45:28;22.30;58.50
33863;DHT22;20158;51.436;-2.742;2022-10-16T14:48:05;22.20;58.20
33863;DHT22;20158;51.436;-2.742;2022-10-16T14:50:32;22.20;58.10
33863;DHT22;20158;51.436;-2.742;2022-10-16T14:52:58;22.20;58.30
33863;DHT22;20158;51.436;-2.742;2022-10-16T14:55:25;22.20;58.20
33863;DHT22;20158;51.436;-2.742;2022-10-16T14:57:51;22.20;58.10
33863;DHT22;20158;51.436;-2.742;2022-10-16T15:00:20;22.20;58.10
33863;DHT22;20158;51.436;-2.742;2022-10-16T15:02:48;22.20;57.80
33863;DHT22;20158;51.436;-2.742;2022-10-16T15:05:20;22.20;57.70
33863;DHT22;20158;51.436;-2.742;2022-10-16T15:07:47;22.10;57.50
33863;DHT22;20158;51.436;-2.742;2022-10-16T15:10:16;22.10;57.70
33863;DHT22;20158;51.436;-2.742;2022-10-16T15:12:43;22.10;57.90
33863;DHT22;20158;51.436;-2.742;2022-10-16T15:15:23;22.10;57.90
33863;DHT22;20158;51.436;-2.742;2022-10-16T15:17:52;22.00;57.40
33863;DHT22;20158;51.436;-2.742;2022-10-16T15:20:19;22.00;57.60
33863;DHT22;20158;51.436;-2.742;2022-10-16T15:22:46;21.90;57.50
33863;DHT22;20158;51.436;-2.742;2022-10-16T15:28:01;21.80;57.50
33863;DHT22;20158;51.436;-2.742;2022-10-16T15:30:27;21.70;57.60
33863;DHT22;20158;51.436;-2.742;2022-10-16T15:32:54;21.60;57.50
33863;DHT22;20158;51.436;-2.742;2022-10-16T15:35:20;21.60;57.60
33863;DHT22;20158;51.436;-2.742;2022-10-16T15:37:47;21.50;57.50
33863;DHT22;20158;51.436;-2.742;2022-10-16T15:40:14;21.50;57.50
33863;DHT22;20158;51.436;-2.742;2022-10-16T15:42:40;21.50;57.50
33863;DHT22;20158;51.436;-2.742;2022-10-16T15:45:08;21.40;57.40
33863;DHT22;20158;51.436;-2.742;2022-10-16T15:47:34;21.40;57.50
33863;DHT22;20158;51.436;-2.742;2022-10-16T15:50:00;21.30;57.60
33863;DHT22;20158;51.436;-2.742;2022-10-16T15:52:25;21.30;57.80
33863;DHT22;20158;51.436;-2.742;2022-10-16T15:54:51;21.30;57.90
33863;DHT22;20158;51.436;-2.742;2022-10-16T15:57:18;21.30;58.00
33863;DHT22;20158;51.436;-2.742;2022-10-16T15:59:45;21.30;58.00
33863;DHT22;20158;51.436;-2.742;2022-10-16T16:02:11;21.20;57.80
33863;DHT22;20158;51.436;-2.742;2022-10-16T16:04:38;21.30;58.00
33863;DHT22;20158;51.436;-2.742;2022-10-16T16:07:04;21.20;57.90
33863;DHT22;20158;51.436;-2.742;2022-10-16T16:09:33;21.20;58.10
33863;DHT22;20158;51.436;-2.742;2022-10-16T16:11:59;21.10;58.00
33863;DHT22;20158;51.436;-2.742;2022-10-16T16:14:28;21.10;58.10
33863;DHT22;20158;51.436;-2.742;2022-10-16T16:16:55;20.90;57.90
33863;DHT22;20158;51.436;-2.742;2022-10-16T16:19:21;20.90;58.10
33863;DHT22;20158;51.436;-2.742;2022-10-16T16:21:48;20.80;58.80
33863;DHT22;20158;51.436;-2.742;2022-10-16T16:24:14;20.70;58.10
33863;DHT22;20158;51.436;-2.742;2022-10-16T16:26:40;20.70;58.30
33863;DHT22;20158;51.436;-2.742;2022-10-16T16:29:13;20.60;58.40
33863;DHT22;20158;51.436;-2.742;2022-10-16T16:31:40;20.60;58.60
33863;DHT22;20158;51.436;-2.742;2022-10-16T16:34:06;20.50;58.60
33863;DHT22;20158;51.436;-2.742;2022-10-16T16:36:33;20.50;58.70
33863;DHT22;20158;51.436;-2.742;2022-10-16T16:38:59;20.40;58.60
33863;DHT22;20158;51.436;-2.742;2022-10-16T16:41:27;20.40;58.80
33863;DHT22;20158;51.436;-2.742;2022-10-16T16:44:05;20.40;58.90
33863;DHT22;20158;51.436;-2.742;2022-10-16T16:46:32;20.30;58.90
33863;DHT22;20158;51.436;-2.742;2022-10-16T16:48:59;20.30;59.00
33863;DHT22;20158;51.436;-2.742;2022-10-16T16:51:26;20.30;59.10
33863;DHT22;20158;51.436;-2.742;2022-10-16T16:53:53;20.20;59.00
33863;DHT22;20158;51.436;-2.742;2022-10-16T16:56:21;20.20;59.10
33863;DHT22;20158;51.436;-2.742;2022-10-16T16:58:48;20.20;59.20
33863;DHT22;20158;51.436;-2.742;2022-10-16T17:01:15;20.10;59.20
33863;DHT22;20158;51.436;-2.742;2022-10-16T17:03:43;20.10;59.30
33863;DHT22;20158;51.436;-2.742;2022-10-16T17:06:13;20.00;59.30
33863;DHT22;20158;51.436;-2.742;2022-10-16T17:08:40;19.90;59.30
33863;DHT22;20158;51.436;-2.742;2022-10-16T17:11:15;19.90;59.60
33863;DHT22;20158;51.436;-2.742;2022-10-16T17:13:42;19.80;59.70
33863;DHT22;20158;51.436;-2.742;2022-10-16T17:16:08;19.80;60.00
33863;DHT22;20158;51.436;-2.742;2022-10-16T17:18:35;19.70;60.10
33863;DHT22;20158;51.436;-2.742;2022-10-16T17:21:06;19.60;60.20
33863;DHT22;20158;51.436;-2.742;2022-10-16T17:23:33;19.50;60.30